sensor_id;sensor_type;location;lat;lon;timestamp;temperature;humidity
17425;DHT22;8830;50.978;5.058;2022-11-03T00:15:37;12.00;99.90
17425;DHT22;8830;50.978;5.058;2022-11-03T00:25:00;12.00;99.90
17425;DHT22;8830;50.978;5.058;2022-11-03T00:37:55;12.00;99.90
17425;DHT22;8830;50.978;5.058;2022-11-03T00:40:54;12.00;99.90
17425;DHT22;8830;50.978;5.058;2022-11-03T00:44:03;12.00;99.90
17425;DHT22;8830;50.978;5.058;2022-11-03T00:47:11;12.00;99.90
17425;DHT22;8830;50.978;5.058;2022-11-03T00:50:11;12.00;99.90
17425;DHT22;8830;50.978;5.058;2022-11-03T00:53:27;12.00;99.90
17425;DHT22;8830;50.978;5.058;2022-11-03T00:59:23;12.00;99.90
17425;DHT22;8830;50.978;5.058;2022-11-03T01:02:12;11.90;99.90
17425;DHT22;8830;50.978;5.058;2022-11-03T01:05:18;12.00;99.90
17425;DHT22;8830;50.978;5.058;2022-11-03T01:22:19;11.90;99.90
17425;DHT22;8830;50.978;5.058;2022-11-03T01:25:38;11.90;99.90
17425;DHT22;8830;50.978;5.058;2022-11-03T01:28:42;11.90;99.90
17425;DHT22;8830;50.978;5.058;2022-11-03T01:31:33;11.90;99.90
17425;DHT22;8830;50.978;5.058;2022-11-03T01:38:00;11.90;99.90
17425;DHT22;8830;50.978;5.058;2022-11-03T01:44:50;11.90;99.90
17425;DHT22;8830;50.978;5.058;2022-11-03T01:47:50;11.90;99.90
17425;DHT22;8830;50.978;5.058;2022-11-03T01:50:44;11.90;99.90
17425;DHT22;8830;50.978;5.058;2022-11-03T02:03:58;12.00;99.90
17425;DHT22;8830;50.978;5.058;2022-11-03T02:07:06;12.00;99.90
17425;DHT22;8830;50.978;5.058;2022-11-03T02:10:00;12.00;99.90
17425;DHT22;8830;50.978;5.058;2022-11-03T02:13:32;11.90;99.90
17425;DHT22;8830;50.978;5.058;2022-11-03T02:30:01;11.80;99.90
17425;DHT22;8830;50.978;5.058;2022-11-03T02:33:05;11.90;99.90
17425;DHT22;8830;50.978;5.058;2022-11-03T02:36:11;11.90;99.90
17425;DHT22;8830;50.978;5.058;2022-11-03T02:39:08;11.90;99.90
17425;DHT22;8830;50.978;5.058;2022-11-03T02:41:58;12.00;99.90
17425;DHT22;8830;50.978;5.058;2022-11-03T02:44:44;8.90;99.90
17425;DHT22;8830;50.978;5.058;2022-11-03T02:50:48;11.90;99.90
17425;DHT22;8830;50.978;5.058;2022-11-03T02:57:32;11.90;99.90
17425;DHT22;8830;50.978;5.058;2022-11-03T03:00:28;11.90;99.90
17425;DHT22;8830;50.978;5.058;2022-11-03T03:03:39;12.00;99.90
17425;DHT22;8830;50.978;5.058;2022-11-03T03:06:46;12.00;99.90
17425;DHT22;8830;50.978;5.058;2022-11-03T03:09:59;12.00;99.90
17425;DHT22;8830;50.978;5.058;2022-11-03T03:13:06;12.00;99.90
17425;DHT22;8830;50.978;5.058;2022-11-03T03:16:11;12.00;99.90
17425;DHT22;8830;50.978;5.058;2022-11-03T03:19:21;12.00;99.90
17425;DHT22;8830;50.978;5.058;2022-11-03T03:22:27;12.00;99.90
17425;DHT22;8830;50.978;5.058;2022-11-03T03:28:47;12.00;99.90
17425;DHT22;8830;50.978;5.058;2022-11-03T03:31:40;12.00;99.90
17425;DHT22;8830;50.978;5.058;2022-11-03T03:34:26;12.00;99.90
17425;DHT22;8830;50.978;5.058;2022-11-03T03:37:42;12.00;99.90
17425;DHT22;8830;50.978;5.058;2022-11-03T03:47:43;11.90;99.90
17425;DHT22;8830;50.978;5.058;2022-11-03T03:50:50;11.90;99.90
17425;DHT22;8830;50.978;5.058;2022-11-03T04:03:45;11.90;99.90
17425;DHT22;8830;50.978;5.058;2022-11-03T04:07:24;11.90;99.90
17425;DHT22;8830;50.978;5.058;2022-11-03T04:10:33;11.90;99.90
17425;DHT22;8830;50.978;5.058;2022-11-03T04:13:22;11.90;99.90
17425;DHT22;8830;50.978;5.058;2022-11-03T04:16:18;11.80;99.90
17425;DHT22;8830;50.978;5.058;2022-11-03T04:19:36;11.90;99.90
17425;DHT22;8830;50.978;5.058;2022-11-03T04:22:41;11.90;99.90
17425;DHT22;8830;50.978;5.058;2022-11-03T04:26:04;11.80;99.90
17425;DHT22;8830;50.978;5.058;2022-11-03T04:29:16;11.90;99.90
17425;DHT22;8830;50.978;5.058;2022-11-03T04:35:39;11.90;99.90
17425;DHT22;8830;50.978;5.058;2022-11-03T04:38:33;11.90;99.90
17425;DHT22;8830;50.978;5.058;2022-11-03T04:41:28;11.90;99.90
17425;DHT22;8830;50.978;5.058;2022-11-03T04:55:54;12.00;99.90
17425;DHT22;8830;50.978;5.058;2022-11-03T05:05:29;12.10;99.90
17425;DHT22;8830;50.978;5.058;2022-11-03T05:08:22;12.10;99.90
17425;DHT22;8830;50.978;5.058;2022-11-03T05:11:38;12.20;99.90
17425;DHT22;8830;50.978;5.058;2022-11-03T05:14:45;12.20;99.90
17425;DHT22;8830;50.978;5.058;2022-11-03T05:17:48;12.20;99.90
17425;DHT22;8830;50.978;5.058;2022-11-03T05:21:01;12.20;99.90
17425;DHT22;8830;50.978;5.058;2022-11-03T05:23:55;12.20;99.90
17425;DHT22;8830;50.978;5.058;2022-11-03T05:27:00;12.30;99.90
17425;DHT22;8830;50.978;5.058;2022-11-03T05:29:57;12.30;99.90
17425;DHT22;8830;50.978;5.058;2022-11-03T05:33:27;12.30;99.90
17425;DHT22;8830;50.978;5.058;2022-11-03T05:43:06;12.30;99.90
17425;DHT22;8830;50.978;5.058;2022-11-03T05:46:38;13.40;99.90
17425;DHT22;8830;50.978;5.058;2022-11-03T05:49:38;12.30;99.90
17425;DHT22;8830;50.978;5.058;2022-11-03T05:52:18;12.30;99.90
17425;DHT22;8830;50.978;5.058;2022-11-03T05:55:26;12.40;99.90
17425;DHT22;8830;50.978;5.058;2022-11-03T05:58:39;12.40;99.90
17425;DHT22;8830;50.978;5.058;2022-11-03T06:01:38;12.40;99.90
17425;DHT22;8830;50.978;5.058;2022-11-03T06:07:29;12.40;99.90
17425;DHT22;8830;50.978;5.058;2022-11-03T06:10:26;12.50;99.90
17425;DHT22;8830;50.978;5.058;2022-11-03T06:17:09;12.50;99.90
17425;DHT22;8830;50.978;5.058;2022-11-03T06:23:41;12.50;99.90
17425;DHT22;8830;50.978;5.058;2022-11-03T06:26:36;12.50;99.90
17425;DHT22;8830;50.978;5.058;2022-11-03T06:29:48;12.50;99.90
17425;DHT22;8830;50.978;5.058;2022-11-03T06:32:37;12.50;99.90
17425;DHT22;8830;50.978;5.058;2022-11-03T06:35:35;12.60;99.90
17425;DHT22;8830;50.978;5.058;2022-11-03T06:38:29;12.60;99.90
17425;DHT22;8830;50.978;5.058;2022-11-03T06:45:17;12.60;99.90
17425;DHT22;8830;50.978;5.058;2022-11-03T06:51:33;12.60;99.90
17425;DHT22;8830;50.978;5.058;2022-11-03T06:54:39;12.60;99.90
17425;DHT22;8830;50.978;5.058;2022-11-03T06:57:44;12.60;99.90
17425;DHT22;8830;50.978;5.058;2022-11-03T07:01:09;12.60;99.90
17425;DHT22;8830;50.978;5.058;2022-11-03T07:24:28;12.70;99.90
17425;DHT22;8830;50.978;5.058;2022-11-03T07:27:34;12.80;99.90
17425;DHT22;8830;50.978;5.058;2022-11-03T07:30:57;12.80;99.90
17425;DHT22;8830;50.978;5.058;2022-11-03T07:37:46;12.90;99.90
17425;DHT22;8830;50.978;5.058;2022-11-03T07:52:27;13.10;99.90
17425;DHT22;8830;50.978;5.058;2022-11-03T07:55:45;13.20;99.90
17425;DHT22;8830;50.978;5.058;2022-11-03T07:58:37;13.20;99.90
17425;DHT22;8830;50.978;5.058;2022-11-03T08:01:48;13.30;99.90
17425;DHT22;8830;50.978;5.058;2022-11-03T08:04:50;13.30;99.90
17425;DHT22;8830;50.978;5.058;2022-11-03T08:18:40;13.50;99.90
17425;DHT22;8830;50.978;5.058;2022-11-03T08:28:32;13.50;99.90
17425;DHT22;8830;50.978;5.058;2022-11-03T08:32:05;13.60;99.90
17425;DHT22;8830;50.978;5.058;2022-11-03T08:51:38;14.00;99.90
17425;DHT22;8830;50.978;5.058;2022-11-03T08:54:09;13.90;99.90
17425;DHT22;8830;50.978;5.058;2022-11-03T08:56:43;13.90;99.90
17425;DHT22;8830;50.978;5.058;2022-11-03T09:01:49;14.00;99.90
17425;DHT22;8830;50.978;5.058;2022-11-03T09:27:06;14.00;99.90
17425;DHT22;8830;50.978;5.058;2022-11-03T09:33:43;14.00;99.90
17425;DHT22;8830;50.978;5.058;2022-11-03T09:37:22;14.00;99.90
17425;DHT22;8830;50.978;5.058;2022-11-03T09:51:08;14.10;99.90
17425;DHT22;8830;50.978;5.058;2022-11-03T09:54:08;14.20;99.90
17425;DHT22;8830;50.978;5.058;2022-11-03T09:57:28;14.20;99.90
17425;DHT22;8830;50.978;5.058;2022-11-03T10:00:21;14.20;99.90
17425;DHT22;8830;50.978;5.058;2022-11-03T10:09:35;14.20;99.90
17425;DHT22;8830;50.978;5.058;2022-11-03T10:19:51;14.30;99.90
17425;DHT22;8830;50.978;5.058;2022-11-03T10:23:09;14.40;99.90
17425;DHT22;8830;50.978;5.058;2022-11-03T10:26:22;14.60;99.90
17425;DHT22;8830;50.978;5.058;2022-11-03T10:29:14;14.70;99.90
17425;DHT22;8830;50.978;5.058;2022-11-03T10:32:30;14.80;99.90
17425;DHT22;8830;50.978;5.058;2022-11-03T10:35:48;14.80;99.90
17425;DHT22;8830;50.978;5.058;2022-11-03T10:39:27;14.80;99.90
17425;DHT22;8830;50.978;5.058;2022-11-03T10:49:22;15.30;99.90
17425;DHT22;8830;50.978;5.058;2022-11-03T10:52:29;15.40;99.90
17425;DHT22;8830;50.978;5.058;2022-11-03T10:58:52;15.50;99.90
17425;DHT22;8830;50.978;5.058;2022-11-03T11:01:51;15.50;99.90
17425;DHT22;8830;50.978;5.058;2022-11-03T12:22:48;16.40;99.90
17425;DHT22;8830;50.978;5.058;2022-11-03T12:29:36;16.30;99.90
17425;DHT22;8830;50.978;5.058;2022-11-03T12:33:15;16.30;99.90
17425;DHT22;8830;50.978;5.058;2022-11-03T12:56:27;16.00;99.90
17425;DHT22;8830;50.978;5.058;2022-11-03T12:59:12;16.00;99.90
17425;DHT22;8830;50.978;5.058;2022-11-03T13:02:32;15.90;99.90
17425;DHT22;8830;50.978;5.058;2022-11-03T13:19:44;15.70;99.90
17425;DHT22;8830;50.978;5.058;2022-11-03T13:25:20;15.50;99.90
17425;DHT22;8830;50.978;5.058;2022-11-03T13:28:35;15.60;99.90
17425;DHT22;8830;50.978;5.058;2022-11-03T13:31:29;15.50;99.90
17425;DHT22;8830;50.978;5.058;2022-11-03T13:34:09;15.50;99.90
17425;DHT22;8830;50.978;5.058;2022-11-03T14:01:33;14.70;99.90
17425;DHT22;8830;50.978;5.058;2022-11-03T14:04:15;14.70;99.90
17425;DHT22;8830;50.978;5.058;2022-11-03T14:07:08;14.70;99.90
17425;DHT22;8830;50.978;5.058;2022-11-03T14:10:27;14.60;99.90
17425;DHT22;8830;50.978;5.058;2022-11-03T14:40:29;14.40;99.90
17425;DHT22;8830;50.978;5.058;2022-11-03T14:50:30;14.40;99.90
17425;DHT22;8830;50.978;5.058;2022-11-03T14:53:38;14.40;99.90
17425;DHT22;8830;50.978;5.058;2022-11-03T15:58:42;13.50;99.90
17425;DHT22;8830;50.978;5.058;2022-11-03T16:01:36;13.40;99.90
17425;DHT22;8830;50.978;5.058;2022-11-03T16:04:19;13.00;99.90
17425;DHT22;8830;50.978;5.058;2022-11-03T16:07:36;12.80;99.90
17425;DHT22;8830;50.978;5.058;2022-11-03T16:13:26;13.10;99.90
17425;DHT22;8830;50.978;5.058;2022-11-03T16:15:59;11.70;99.90
17425;DHT22;8830;50.978;5.058;2022-11-03T16:18:31;10.70;99.90
17425;DHT22;8830;50.978;5.058;2022-11-03T16:21:01;13.10;99.90
17425;DHT22;8830;50.978;5.058;2022-11-03T16:23:29;13.00;99.90
17425;DHT22;8830;50.978;5.058;2022-11-03T16:26:00;13.00;99.90
17425;DHT22;8830;50.978;5.058;2022-11-03T16:28:30;13.00;99.90
17425;DHT22;8830;50.978;5.058;2022-11-03T16:31:05;13.00;99.90
17425;DHT22;8830;50.978;5.058;2022-11-03T16:33:34;13.00;99.90
17425;DHT22;8830;50.978;5.058;2022-11-03T16:36:04;12.90;99.90
17425;DHT22;8830;50.978;5.058;2022-11-03T16:38:37;12.90;99.90
17425;DHT22;8830;50.978;5.058;2022-11-03T16:41:09;12.90;99.90
17425;DHT22;8830;50.978;5.058;2022-11-03T16:43:42;13.00;99.90
17425;DHT22;8830;50.978;5.058;2022-11-03T16:46:37;13.00;99.90
17425;DHT22;8830;50.978;5.058;2022-11-03T16:49:28;12.90;99.90
17425;DHT22;8830;50.978;5.058;2022-11-03T16:52:17;12.90;99.90
17425;DHT22;8830;50.978;5.058;2022-11-03T16:54:53;12.90;99.90
17425;DHT22;8830;50.978;5.058;2022-11-03T16:57:26;12.90;99.90
17425;DHT22;8830;50.978;5.058;2022-11-03T16:59:58;12.90;99.90
17425;DHT22;8830;50.978;5.058;2022-11-03T17:02:28;12.90;99.90
17425;DHT22;8830;50.978;5.058;2022-11-03T17:04:56;12.90;99.90
17425;DHT22;8830;50.978;5.058;2022-11-03T17:07:24;12.90;99.90
17425;DHT22;8830;50.978;5.058;2022-11-03T17:09:57;12.90;99.90
17425;DHT22;8830;50.978;5.058;2022-11-03T17:12:30;12.80;99.90
17425;DHT22;8830;50.978;5.058;2022-11-03T17:15:00;12.90;99.90
17425;DHT22;8830;50.978;5.058;2022-11-03T17:17:45;12.80;99.90
17425;DHT22;8830;50.978;5.058;2022-11-03T17:20:17;12.80;99.90
17425;DHT22;8830;50.978;5.058;2022-11-03T17:22:49;12.90;99.90
17425;DHT22;8830;50.978;5.058;2022-11-03T17:25:16;12.90;99.90
17425;DHT22;8830;50.978;5.058;2022-11-03T17:27:47;12.90;99.90
17425;DHT22;8830;50.978;5.058;2022-11-03T17:30:36;12.70;99.90
17425;DHT22;8830;50.978;5.058;2022-11-03T17:33:21;12.90;99.90
17425;DHT22;8830;50.978;5.058;2022-11-03T17:35:56;12.90;99.90
17425;DHT22;8830;50.978;5.058;2022-11-03T17:38:31;12.90;99.90
17425;DHT22;8830;50.978;5.058;2022-11-03T17:41:04;12.80;99.90
17425;DHT22;8830;50.978;5.058;2022-11-03T17:43:33;12.80;99.90
17425;DHT22;8830;50.978;5.058;2022-11-03T17:46:08;12.80;99.90
17425;DHT22;8830;50.978;5.058;2022-11-03T17:48:57;12.80;99.90
17425;DHT22;8830;50.978;5.058;2022-11-03T17:51:27;12.80;99.90
17425;DHT22;8830;50.978;5.058;2022-11-03T17:53:56;12.80;99.90
17425;DHT22;8830;50.978;5.058;2022-11-03T17:56:25;12.80;99.90
17425;DHT22;8830;50.978;5.058;2022-11-03T17:58:55;12.80;99.90
17425;DHT22;8830;50.978;5.058;2022-11-03T18:01:25;12.80;99.90
17425;DHT22;8830;50.978;5.058;2022-11-03T18:04:00;12.80;99.90
17425;DHT22;8830;50.978;5.058;2022-11-03T18:06:45;12.80;99.90
17425;DHT22;8830;50.978;5.058;2022-11-03T18:09:25;12.80;99.90
17425;DHT22;8830;50.978;5.058;2022-11-03T18:11:56;12.80;99.90
17425;DHT22;8830;50.978;5.058;2022-11-03T18:14:51;12.80;99.90
17425;DHT22;8830;50.978;5.058;2022-11-03T18:17:27;12.80;99.90
17425;DHT22;8830;50.978;5.058;2022-11-03T18:20:12;12.80;99.90
17425;DHT22;8830;50.978;5.058;2022-11-03T18:22:48;12.80;99.90
17425;DHT22;8830;50.978;5.058;2022-11-03T18:25:34;12.80;99.90
17425;DHT22;8830;50.978;5.058;2022-11-03T18:28:08;12.80;99.90
17425;DHT22;8830;50.978;5.058;2022-11-03T18:30:46;12.80;99.90
17425;DHT22;8830;50.978;5.058;2022-11-03T18:33:33;12.80;99.90
17425;DHT22;8830;50.978;5.058;2022-11-03T18:36:20;12.80;99.90
17425;DHT22;8830;50.978;5.058;2022-11-03T18:39:02;12.80;99.90
17425;DHT22;8830;50.978;5.058;2022-11-03T18:41:39;12.70;99.90
17425;DHT22;8830;50.978;5.058;2022-11-03T18:44:28;12.80;99.90
17425;DHT22;8830;50.978;5.058;2022-11-03T18:49:57;12.80;99.90
17425;DHT22;8830;50.978;5.058;2022-11-03T18:52:58;12.90;99.90
17425;DHT22;8830;50.978;5.058;2022-11-03T18:55:32;12.80;99.90
17425;DHT22;8830;50.978;5.058;2022-11-03T18:58:21;13.00;99.90
17425;DHT22;8830;50.978;5.058;2022-11-03T19:00:53;12.80;99.90
17425;DHT22;8830;50.978;5.058;2022-11-03T19:03:25;12.80;99.90
17425;DHT22;8830;50.978;5.058;2022-11-03T19:06:10;12.80;99.90
17425;DHT22;8830;50.978;5.058;2022-11-03T19:11:55;12.80;99.90
17425;DHT22;8830;50.978;5.058;2022-11-03T19:14:45;12.80;99.90
17425;DHT22;8830;50.978;5.058;2022-11-03T19:17:31;12.80;99.90
17425;DHT22;8830;50.978;5.058;2022-11-03T19:20:12;12.80;99.90
17425;DHT22;8830;50.978;5.058;2022-11-03T19:22:54;12.80;99.90
17425;DHT22;8830;50.978;5.058;2022-11-03T19:25:26;12.80;99.90
17425;DHT22;8830;50.978;5.058;2022-11-03T19:28:18;12.80;99.90
17425;DHT22;8830;50.978;5.058;2022-11-03T19:30:53;12.80;99.90
17425;DHT22;8830;50.978;5.058;2022-11-03T19:33:40;12.80;99.90
17425;DHT22;8830;50.978;5.058;2022-11-03T19:36:14;12.70;99.90
17425;DHT22;8830;50.978;5.058;2022-11-03T19:38:47;12.80;99.90
17425;DHT22;8830;50.978;5.058;2022-11-03T19:41:18;12.70;99.90
17425;DHT22;8830;50.978;5.058;2022-11-03T19:44:12;12.60;99.90
17425;DHT22;8830;50.978;5.058;2022-11-03T19:46:44;12.60;99.90
17425;DHT22;8830;50.978;5.058;2022-11-03T19:49:15;12.50;99.90
17425;DHT22;8830;50.978;5.058;2022-11-03T19:51:55;12.50;99.90
17425;DHT22;8830;50.978;5.058;2022-11-03T19:54:35;12.50;99.90
17425;DHT22;8830;50.978;5.058;2022-11-03T19:57:09;12.40;99.90
17425;DHT22;8830;50.978;5.058;2022-11-03T19:59:50;12.40;99.90
17425;DHT22;8830;50.978;5.058;2022-11-03T20:02:24;12.40;99.90
17425;DHT22;8830;50.978;5.058;2022-11-03T20:05:10;12.20;99.90
17425;DHT22;8830;50.978;5.058;2022-11-03T20:07:49;12.30;99.90
17425;DHT22;8830;50.978;5.058;2022-11-03T20:10:33;12.30;99.90
17425;DHT22;8830;50.978;5.058;2022-11-03T20:13:39;12.40;99.90
17425;DHT22;8830;50.978;5.058;2022-11-03T20:16:39;12.40;99.90
17425;DHT22;8830;50.978;5.058;2022-11-03T20:22:36;12.40;99.90
17425;DHT22;8830;50.978;5.058;2022-11-03T20:25:29;12.40;99.90
17425;DHT22;8830;50.978;5.058;2022-11-03T20:28:14;12.30;99.90
17425;DHT22;8830;50.978;5.058;2022-11-03T20:31:12;12.30;99.90
17425;DHT22;8830;50.978;5.058;2022-11-03T20:33:51;12.30;99.90
17425;DHT22;8830;50.978;5.058;2022-11-03T20:36:24;12.30;99.90
17425;DHT22;8830;50.978;5.058;2022-11-03T20:39:03;12.30;99.90
17425;DHT22;8830;50.978;5.058;2022-11-03T20:41:44;12.30;99.90
17425;DHT22;8830;50.978;5.058;2022-11-03T20:44:28;12.20;99.90
17425;DHT22;8830;50.978;5.058;2022-11-03T20:47:14;12.20;99.90
17425;DHT22;8830;50.978;5.058;2022-11-03T20:50:07;12.10;99.90
17425;DHT22;8830;50.978;5.058;2022-11-03T20:52:38;12.10;99.90
17425;DHT22;8830;50.978;5.058;2022-11-03T20:58:16;12.00;99.90
17425;DHT22;8830;50.978;5.058;2022-11-03T21:01:01;12.00;99.90
17425;DHT22;8830;50.978;5.058;2022-11-03T21:03:55;12.00;99.90
17425;DHT22;8830;50.978;5.058;2022-11-03T21:06:38;12.00;99.90
17425;DHT22;8830;50.978;5.058;2022-11-03T21:09:24;12.00;99.90
17425;DHT22;8830;50.978;5.058;2022-11-03T21:11:56;12.00;99.90
17425;DHT22;8830;50.978;5.058;2022-11-03T21:14:28;12.00;99.90
17425;DHT22;8830;50.978;5.058;2022-11-03T21:17:01;11.90;99.90
17425;DHT22;8830;50.978;5.058;2022-11-03T21:19:53;11.90;99.90
17425;DHT22;8830;50.978;5.058;2022-11-03T21:22:52;11.90;99.90
17425;DHT22;8830;50.978;5.058;2022-11-03T21:25:46;11.90;99.90
17425;DHT22;8830;50.978;5.058;2022-11-03T21:28:41;11.80;99.90
17425;DHT22;8830;50.978;5.058;2022-11-03T21:31:30;11.90;99.90
17425;DHT22;8830;50.978;5.058;2022-11-03T21:34:05;11.80;99.90
17425;DHT22;8830;50.978;5.058;2022-11-03T21:37:17;11.80;99.90
17425;DHT22;8830;50.978;5.058;2022-11-03T21:40:13;11.80;99.90
17425;DHT22;8830;50.978;5.058;2022-11-03T21:43:00;11.80;99.90
17425;DHT22;8830;50.978;5.058;2022-11-03T21:46:05;11.80;99.90
17425;DHT22;8830;50.978;5.058;2022-11-03T21:49:12;11.80;99.90
17425;DHT22;8830;50.978;5.058;2022-11-03T21:52:01;11.80;99.90
17425;DHT22;8830;50.978;5.058;2022-11-03T21:54:48;11.80;99.90
17425;DHT22;8830;50.978;5.058;2022-11-03T21:57:35;11.30;99.90
17425;DHT22;8830;50.978;5.058;2022-11-03T22:00:36;11.80;99.90
17425;DHT22;8830;50.978;5.058;2022-11-03T22:03:41;11.90;99.90
17425;DHT22;8830;50.978;5.058;2022-11-03T22:06:25;11.50;99.90
17425;DHT22;8830;50.978;5.058;2022-11-03T22:09:14;11.90;99.90
17425;DHT22;8830;50.978;5.058;2022-11-03T22:12:26;11.90;99.90
17425;DHT22;8830;50.978;5.058;2022-11-03T22:31:57;11.50;99.90
17425;DHT22;8830;50.978;5.058;2022-11-03T22:34:55;11.50;99.90
17425;DHT22;8830;50.978;5.058;2022-11-03T22:38:11;11.50;99.90
17425;DHT22;8830;50.978;5.058;2022-11-03T22:41:04;11.50;99.90
17425;DHT22;8830;50.978;5.058;2022-11-03T22:44:11;11.50;99.90
17425;DHT22;8830;50.978;5.058;2022-11-03T22:47:21;11.50;99.90
17425;DHT22;8830;50.978;5.058;2022-11-03T22:53:21;11.60;99.90
17425;DHT22;8830;50.978;5.058;2022-11-03T22:56:07;10.10;99.90
17425;DHT22;8830;50.978;5.058;2022-11-03T22:58:44;11.40;99.90
17425;DHT22;8830;50.978;5.058;2022-11-03T23:01:16;11.70;99.90
17425;DHT22;8830;50.978;5.058;2022-11-03T23:04:26;11.30;99.90
17425;DHT22;8830;50.978;5.058;2022-11-03T23:06:57;11.10;99.90
17425;DHT22;8830;50.978;5.058;2022-11-03T23:09:44;11.10;99.90
17425;DHT22;8830;50.978;5.058;2022-11-03T23:12:17;11.00;99.90
17425;DHT22;8830;50.978;5.058;2022-11-03T23:14:53;11.00;99.90
17425;DHT22;8830;50.978;5.058;2022-11-03T23:17:38;11.90;99.90
17425;DHT22;8830;50.978;5.058;2022-11-03T23:20:28;11.00;99.90
17425;DHT22;8830;50.978;5.058;2022-11-03T23:23:17;11.00;99.90
17425;DHT22;8830;50.978;5.058;2022-11-03T23:26:02;12.20;99.90
17425;DHT22;8830;50.978;5.058;2022-11-03T23:28:51;10.80;99.90
17425;DHT22;8830;50.978;5.058;2022-11-03T23:31:24;10.70;99.90
17425;DHT22;8830;50.978;5.058;2022-11-03T23:34:06;10.60;99.90
17425;DHT22;8830;50.978;5.058;2022-11-03T23:37:21;10.60;99.90
17425;DHT22;8830;50.978;5.058;2022-11-03T23:40:11;10.50;99.90
17425;DHT22;8830;50.978;5.058;2022-11-03T23:42:56;10.50;99.90
17425;DHT22;8830;50.978;5.058;2022-11-03T23:45:35;10.40;99.90
17425;DHT22;8830;50.978;5.058;2022-11-03T23:48:28;10.40;99.90
17425;DHT22;8830;50.978;5.058;2022-11-03T23:51:54;10.30;99.90
17425;DHT22;8830;50.978;5.058;2022-11-03T23:54:41;10.20;99.90
17425;DHT22;8830;50.978;5.058;2022-11-03T23:57:15;10.30;99.90
